Time;durP1;ratioP1;P1;durP2;ratioP2;P2;SDS_P1;SDS_P2;PMS_P1;PMS_P2;Temp;Humidity;BMP_temperature;BMP_pressure;BME280_temperature;BME280_humidity;BME280_pressure;Samples;Min_cycle;Max_cycle;Signal;HPM_P1;HPM_P2
2023/06/21 00:00:15;;;;;;;18.85;10.25;;;;;;;19.41;82.26;99027.91;4938280;29;20156;-93
2023/06/21 00:02:42;;;;;;;17.58;10.02;;;;;;;19.27;83.69;99007.13;4943699;29;20043;-93
2023/06/21 00:05:10;;;;;;;20.67;10.15;;;;;;;19.32;83.90;99024.88;4938565;29;20052;-93
2023/06/21 00:07:38;;;;;;;18.45;10.27;;;;;;;19.20;83.42;99004.91;4945935;29;20079;-93
2023/06/21 00:10:07;;;;;;;16.75;10.27;;;;;;;19.41;81.89;99014.41;4938125;29;20048;-92
2023/06/21 00:12:33;;;;;;;25.38;10.55;;;;;;;19.46;81.58;99016.84;4976066;28;20055;-94
2023/06/21 00:14:59;;;;;;;20.52;11.15;;;;;;;19.47;81.04;99013.16;4967775;28;20535;-93
2023/06/21 00:17:25;;;;;;;18.48;10.20;;;;;;;19.50;81.11;99013.88;4947292;29;20135;-93
2023/06/21 00:19:54;;;;;;;18.80;10.77;;;;;;;19.40;82.12;99023.44;4961211;28;20475;-94
2023/06/21 00:22:22;;;;;;;22.73;11.27;;;;;;;19.23;82.33;99008.25;4959305;28;20066;-93
2023/06/21 00:24:48;;;;;;;15.98;10.07;;;;;;;19.36;82.37;99032.69;4943158;28;20063;-93
2023/06/21 00:27:14;;;;;;;20.00;10.80;;;;;;;19.31;82.47;99029.41;4948830;28;20091;-93
2023/06/21 00:29:40;;;;;;;21.92;10.93;;;;;;;19.25;82.95;99022.53;4948941;29;20043;-91
2023/06/21 00:32:06;;;;;;;19.17;10.45;;;;;;;19.26;82.49;99010.81;4941632;29;20047;-93
2023/06/21 00:34:32;;;;;;;19.83;11.10;;;;;;;19.28;82.63;99018.81;4945189;28;20043;-92
2023/06/21 00:36:59;;;;;;;21.63;11.38;;;;;;;19.34;83.14;99034.59;4964274;28;20129;-91
2023/06/21 00:39:26;;;;;;;20.20;10.80;;;;;;;19.32;83.08;99039.22;4966230;28;20071;-93
2023/06/21 00:41:52;;;;;;;22.55;11.85;;;;;;;19.19;83.25;99024.72;4949973;29;20502;-93
2023/06/21 00:44:17;;;;;;;19.48;10.98;;;;;;;19.17;83.92;99032.03;4958251;28;20048;-93
2023/06/21 00:46:43;;;;;;;22.83;11.48;;;;;;;18.94;84.34;99014.50;4937472;29;20455;-93
2023/06/21 00:49:09;;;;;;;18.95;11.45;;;;;;;18.91;85.88;99028.13;4971239;28;20070;-93
2023/06/21 00:51:38;;;;;;;27.92;12.27;;;;;;;18.96;84.83;99026.94;4958024;28;20043;-92
2023/06/21 00:54:05;;;;;;;21.75;11.55;;;;;;;18.93;85.44;99028.91;4939169;29;20051;-91
2023/06/21 00:56:34;;;;;;;21.30;11.52;;;;;;;18.85;85.87;99013.19;4967783;28;20521;-93
2023/06/21 00:59:00;;;;;;;27.55;12.52;;;;;;;18.94;85.86;99030.66;4951808;28;20040;-94
2023/06/21 01:01:26;;;;;;;20.73;11.27;;;;;;;18.88;86.68;99035.44;4942679;29;20058;-93
2023/06/21 01:03:53;;;;;;;21.85;11.77;;;;;;;18.88;87.90;99038.13;4962183;28;20062;-93
2023/06/21 01:06:26;;;;;;;23.98;11.63;;;;;;;18.84;87.37;99041.94;4966801;28;20051;-93
2023/06/21 01:09:03;;;;;;;21.30;11.30;;;;;;;18.65;86.51;99012.47;4937760;29;20100;-93
2023/06/21 01:11:34;;;;;;;25.13;11.98;;;;;;;18.76;86.37;99038.81;4946056;29;20046;-94
2023/06/21 01:14:14;;;;;;;22.17;12.45;;;;;;;18.51;87.17;99009.66;4955498;29;20444;-94
2023/06/21 01:16:43;;;;;;;26.10;12.10;;;;;;;18.60;88.90;99035.22;4950752;29;20044;-93
2023/06/21 01:19:25;;;;;;;26.17;12.43;;;;;;;18.57;90.08;99032.72;4944932;28;20051;-93
2023/06/21 01:21:53;;;;;;;24.60;12.57;;;;;;;18.49;90.31;99022.34;4938512;29;20044;-93
2023/06/21 01:24:31;;;;;;;28.40;12.40;;;;;;;18.50;91.93;99036.69;4956182;28;20058;-92
2023/06/21 01:27:27;;;;;;;25.88;12.88;;;;;;;18.50;91.23;99021.41;4950812;29;20113;-93
2023/06/21 01:29:59;;;;;;;28.00;12.55;;;;;;;18.61;90.39;99036.97;4948576;29;20044;-93
2023/06/21 01:32:28;;;;;;;23.77;12.68;;;;;;;18.69;89.62;99037.41;4939128;29;20044;-93
2023/06/21 01:34:54;;;;;;;;;;;;;;;18.74;88.91;99035.34;4937571;29;20056;-92
2023/06/21 01:37:19;;;;;;;24.42;11.98;;;;;;;18.77;88.67;99035.16;4943107;29;19918;-92
2023/06/21 01:39:45;;;;;;;25.73;12.85;;;;;;;18.71;89.16;99024.72;4936686;28;20048;-93
2023/06/21 01:42:11;;;;;;;26.17;12.27;;;;;;;18.62;89.17;98998.31;4939914;29;20039;-93
2023/06/21 01:44:38;;;;;;;24.73;13.48;;;;;;;18.64;88.89;99004.47;4951066;29;20043;-92
2023/06/21 01:47:06;;;;;;;25.50;13.32;;;;;;;18.66;89.42;99014.19;4954534;28;20043;-93
2023/06/21 01:49:33;;;;;;;30.42;13.40;;;;;;;18.62;90.52;99007.25;4954851;29;20047;-93
2023/06/21 01:52:04;;;;;;;25.83;13.35;;;;;;;18.60;91.84;99016.38;4952592;28;20039;-93
2023/06/21 01:54:31;;;;;;;26.38;12.98;;;;;;;18.64;91.35;99021.50;4936876;29;20103;-92
2023/06/21 01:56:59;;;;;;;25.30;12.60;;;;;;;18.54;91.80;99014.00;4956139;29;20053;-93
2023/06/21 01:59:25;;;;;;;26.20;12.83;;;;;;;18.55;91.70;99021.16;4946174;29;20051;-92
2023/06/21 02:01:52;;;;;;;26.63;12.63;;;;;;;18.55;91.81;99029.22;4936677;29;20044;-92
2023/06/21 02:04:20;;;;;;;26.48;13.07;;;;;;;18.34;92.16;98994.44;4954732;29;20043;-92
2023/06/21 02:06:48;;;;;;;28.70;13.90;;;;;;;18.33;92.00;98999.94;4946620;29;20047;-93
2023/06/21 02:09:14;;;;;;;27.80;13.95;;;;;;;18.49;92.65;99035.81;4955982;29;20047;-93
2023/06/21 02:11:40;;;;;;;27.33;12.57;;;;;;;18.26;93.19;99007.50;4955760;28;20078;-93
2023/06/21 02:14:07;;;;;;;29.02;13.48;;;;;;;18.31;92.55;99016.16;4952189;29;20538;-92
2023/06/21 02:16:34;;;;;;;24.02;12.88;;;;;;;18.25;91.71;99011.97;4936421;29;20549;-91
2023/06/21 02:19:00;;;;;;;25.95;13.00;;;;;;;18.38;91.93;99032.84;4936195;29;20050;-94
2023/06/21 02:21:27;;;;;;;22.00;11.73;;;;;;;18.38;92.67;99040.94;4944370;29;20055;-92
2023/06/21 02:23:53;;;;;;;28.90;12.85;;;;;;;18.29;92.93;99022.59;4941274;28;20146;-93
2023/06/21 02:26:19;;;;;;;29.25;13.13;;;;;;;18.29;92.31;99010.00;4938769;29;20136;-92
2023/06/21 02:28:45;;;;;;;30.45;13.27;;;;;;;18.38;92.49;99032.84;4936376;29;20093;-95
2023/06/21 02:31:11;;;;;;;31.00;13.65;;;;;;;18.26;93.96;99026.34;4953879;29;20041;-93
2023/06/21 02:33:38;;;;;;;29.77;13.50;;;;;;;18.27;95.44;99042.38;4955944;29;20045;-93
2023/06/21 02:36:04;;;;;;;30.27;14.98;;;;;;;18.16;95.67;99020.56;4953524;28;20043;-93
2023/06/21 02:38:31;;;;;;;27.55;14.13;;;;;;;18.15;96.62;99034.97;4945791;29;20051;-94
2023/06/21 02:40:57;;;;;;;28.15;13.20;;;;;;;18.08;97.17;99033.56;4936235;29;20048;-94
2023/06/21 02:43:23;;;;;;;28.70;14.57;;;;;;;18.03;97.39;99016.78;4936170;29;20202;-94
2023/06/21 02:45:50;;;;;;;29.30;14.13;;;;;;;17.95;98.95;99027.94;4936411;29;20227;-94
2023/06/21 02:48:16;;;;;;;26.10;12.80;;;;;;;17.95;98.37;99035.16;4940325;29;20047;-94
2023/06/21 02:50:41;;;;;;;26.67;13.82;;;;;;;17.95;98.45;99037.84;4939688;29;20040;-93
2023/06/21 02:53:07;;;;;;;29.10;13.95;;;;;;;18.01;99.25;99053.69;4947315;29;20047;-93
2023/06/21 02:55:35;;;;;;;29.95;13.93;;;;;;;17.97;100.00;99047.56;4945281;29;20052;-93
2023/06/21 02:58:00;;;;;;;29.27;13.60;;;;;;;17.83;99.90;99044.75;4954814;29;20043;-92
2023/06/21 03:00:29;;;;;;;26.80;13.70;;;;;;;17.71;100.00;99050.75;4946240;29;20054;-93
2023/06/21 03:03:03;;;;;;;30.38;14.38;;;;;;;17.70;100.00;99049.00;4939906;29;20044;-92
2023/06/21 03:05:29;;;;;;;26.73;13.32;;;;;;;17.74;100.00;99051.47;4939443;29;20047;-91
2023/06/21 03:07:56;;;;;;;32.45;14.63;;;;;;;17.80;100.00;99069.97;4954127;29;20036;-93
2023/06/21 03:10:22;;;;;;;28.85;13.85;;;;;;;17.67;100.00;99055.41;4950027;29;20048;-92
2023/06/21 03:12:50;;;;;;;30.15;13.68;;;;;;;17.63;100.00;99053.81;4956953;29;20138;-93
2023/06/21 03:15:16;;;;;;;27.13;14.23;;;;;;;17.65;100.00;99060.88;4941078;29;20058;-93
2023/06/21 03:17:42;;;;;;;25.85;13.52;;;;;;;17.64;100.00;99060.94;4942299;29;20035;-93
2023/06/21 03:20:12;;;;;;;28.23;14.25;;;;;;;17.56;100.00;99060.47;4942991;29;20055;-93
2023/06/21 03:22:38;;;;;;;27.95;13.85;;;;;;;17.60;100.00;99062.91;4958077;28;20039;-93
2023/06/21 03:25:05;;;;;;;29.77;14.00;;;;;;;17.60;100.00;99056.66;4958537;29;20075;-92
2023/06/21 03:27:31;;;;;;;31.55;13.88;;;;;;;17.58;100.00;99062.13;4958505;29;20051;-92
2023/06/21 03:29:59;;;;;;;28.58;13.50;;;;;;;17.49;100.00;99048.28;4959058;29;20528;-92
2023/06/21 03:32:24;;;;;;;33.60;13.97;;;;;;;17.57;100.00;99071.16;4952721;29;20067;-93
2023/06/21 03:34:50;;;;;;;34.05;14.52;;;;;;;17.49;100.00;99062.59;4948149;28;20078;-94
2023/06/21 03:37:16;;;;;;;28.77;13.88;;;;;;;17.41;100.00;99040.59;4940042;29;20052;-93
2023/06/21 03:39:42;;;;;;;33.75;14.23;;;;;;;17.56;100.00;99076.59;4948739;29;20079;-93
2023/06/21 03:42:08;;;;;;;28.05;14.40;;;;;;;17.48;100.00;99085.06;4954567;28;20040;-92
2023/06/21 03:44:34;;;;;;;27.63;13.15;;;;;;;17.32;100.00;99057.19;4938442;29;20043;-92
2023/06/21 03:47:01;;;;;;;33.13;14.25;;;;;;;17.28;100.00;99055.59;4938353;29;20074;-94
2023/06/21 03:49:27;;;;;;;31.63;14.45;;;;;;;17.26;100.00;99058.34;4938974;29;20082;-93
2023/06/21 03:51:53;;;;;;;31.38;15.15;;;;;;;17.43;100.00;99079.88;4940720;29;20068;-93
2023/06/21 03:54:19;;;;;;;33.97;15.95;;;;;;;17.37;100.00;99069.47;4947808;29;20137;-93
2023/06/21 03:56:44;;;;;;;32.10;14.40;;;;;;;17.32;100.00;99052.69;4942818;29;20048;-94
2023/06/21 03:59:10;;;;;;;30.23;14.45;;;;;;;17.35;100.00;99063.31;4938681;29;20047;-93
2023/06/21 04:01:36;;;;;;;30.83;14.90;;;;;;;17.48;100.00;99074.31;4954541;29;20508;-92
2023/06/21 04:04:04;;;;;;;32.47;15.00;;;;;;;17.53;100.00;99071.38;4957583;29;20106;-93
2023/06/21 04:06:30;;;;;;;35.15;14.82;;;;;;;17.63;100.00;99092.34;4941253;29;20131;-93
2023/06/21 04:08:55;;;;;;;33.53;14.27;;;;;;;17.44;100.00;99060.13;4941491;29;20472;-93
2023/06/21 04:11:22;;;;;;;30.52;14.77;;;;;;;17.58;100.00;99074.69;4940861;29;20138;-93
2023/06/21 04:13:48;;;;;;;36.88;15.75;;;;;;;17.66;100.00;99085.94;4948143;29;20067;-92
2023/06/21 04:16:14;;;;;;;27.75;13.90;;;;;;;17.50;100.00;99063.44;4957074;29;20128;-93
2023/06/21 04:18:40;;;;;;;31.63;14.18;;;;;;;17.53;100.00;99071.38;4957439;29;20043;-93
2023/06/21 04:21:08;;;;;;;29.60;13.43;;;;;;;17.74;100.00;99093.59;4942022;29;20067;-92
2023/06/21 04:23:34;;;;;;;25.42;14.45;;;;;;;17.82;100.00;99103.06;4956861;29;20043;-93
2023/06/21 04:25:59;;;;;;;26.80;13.00;;;;;;;17.92;100.00;99108.84;4956912;29;20101;-93
2023/06/21 04:28:25;;;;;;;23.88;12.23;;;;;;;17.88;100.00;99080.34;4957078;29;20062;-94
2023/06/21 04:30:51;;;;;;;30.00;13.05;;;;;;;18.10;100.00;99098.94;4953515;28;20428;-93
2023/06/21 04:33:17;;;;;;;26.13;13.07;;;;;;;18.17;100.00;99091.41;4956606;28;20041;-94
2023/06/21 04:35:43;;;;;;;22.70;12.40;;;;;;;18.22;100.00;99084.84;4948783;29;20040;-95
2023/06/21 04:38:10;;;;;;;24.42;12.75;;;;;;;18.38;100.00;99090.25;4954129;29;20058;-94
2023/06/21 04:40:37;;;;;;;25.27;13.05;;;;;;;18.51;100.00;99095.00;4956795;29;20110;-93
2023/06/21 04:43:05;;;;;;;27.55;12.55;;;;;;;18.57;100.00;99092.81;4956589;29;20466;-93
2023/06/21 04:45:31;;;;;;;22.73;12.20;;;;;;;18.50;100.00;99082.47;4957026;29;20098;-94
2023/06/21 04:47:57;;;;;;;25.25;13.18;;;;;;;18.74;100.00;99104.50;4956611;29;20062;-93
2023/06/21 04:50:24;;;;;;;22.13;11.98;;;;;;;18.87;100.00;99095.69;4956511;28;20144;-94
2023/06/21 04:52:51;;;;;;;21.30;12.45;;;;;;;19.01;100.00;99081.41;4957354;28;20043;-93
2023/06/21 04:55:19;;;;;;;19.73;11.02;;;;;;;19.26;100.00;99086.28;4956598;29;20047;-94
2023/06/21 04:57:45;;;;;;;20.88;10.77;;;;;;;19.60;100.00;99092.41;4956552;28;20525;-94
2023/06/21 05:00:12;;;;;;;22.10;10.95;;;;;;;19.97;97.77;99090.22;4954971;29;20055;-92
2023/06/21 05:02:39;;;;;;;21.05;11.00;;;;;;;20.11;96.28;99076.78;4943345;29;20383;-94
2023/06/21 05:05:05;;;;;;;19.65;10.98;;;;;;;20.23;92.55;99077.88;4940266;29;20572;-93
2023/06/21 05:07:30;;;;;;;16.77;10.13;;;;;;;20.57;87.50;99082.97;4957633;29;20057;-93
2023/06/21 05:09:56;;;;;;;18.50;10.00;;;;;;;20.79;83.15;99072.56;4957904;28;20150;-94
2023/06/21 05:12:24;;;;;;;20.40;10.63;;;;;;;20.87;80.22;99053.16;4957513;28;20039;-94
2023/06/21 05:14:50;;;;;;;17.08;9.48;;;;;;;21.26;78.15;99089.38;4958178;29;20489;-94
2023/06/21 05:17:16;;;;;;;17.35;10.10;;;;;;;21.36;76.10;99076.09;4958550;29;20146;-95
2023/06/21 05:19:42;;;;;;;17.65;9.68;;;;;;;21.51;75.21;99078.69;4957530;29;20094;-94
2023/06/21 05:22:08;;;;;;;12.85;9.00;;;;;;;21.66;73.61;99089.44;4953965;29;20070;-96
2023/06/21 05:24:34;;;;;;;17.08;9.32;;;;;;;21.60;73.14;99092.56;4937993;29;20048;-94
2023/06/21 05:27:00;;;;;;;16.00;10.18;;;;;;;21.73;71.77;99099.75;4945954;29;20133;-93
2023/06/21 05:29:28;;;;;;;13.10;8.65;;;;;;;21.65;71.06;99076.91;4957388;29;20171;-94
2023/06/21 05:31:54;;;;;;;14.02;8.73;;;;;;;21.63;72.91;99077.00;4942578;29;20505;-93
2023/06/21 05:34:20;;;;;;;14.07;8.85;;;;;;;21.86;70.74;99075.44;4938766;29;20071;-95
2023/06/21 05:36:46;;;;;;;15.57;9.32;;;;;;;21.78;73.07;99091.31;4951207;29;20070;-92
2023/06/21 05:39:12;;;;;;;16.30;9.20;;;;;;;21.81;71.79;99091.09;4956727;29;20067;-92
2023/06/21 05:41:37;;;;;;;18.65;9.18;;;;;;;21.94;71.75;99099.25;4951821;29;20055;-91
2023/06/21 05:44:04;;;;;;;15.93;8.40;;;;;;;21.84;70.73;99093.63;4941952;29;20071;-93
2023/06/21 05:46:31;;;;;;;14.02;9.45;;;;;;;21.05;75.73;99097.91;4953989;29;20115;-94
2023/06/21 05:48:57;;;;;;;15.18;9.00;;;;;;;21.29;74.55;99105.41;4941683;29;20043;-93
2023/06/21 05:51:23;;;;;;;15.35;9.43;;;;;;;21.58;72.76;99095.38;4959513;29;20047;-93
2023/06/21 05:53:49;;;;;;;15.52;9.93;;;;;;;21.72;71.57;99075.50;4952985;29;20048;-93
2023/06/21 05:56:15;;;;;;;14.95;9.27;;;;;;;21.68;72.28;99090.22;4939480;29;20151;-93
2023/06/21 05:58:40;;;;;;;14.50;9.90;;;;;;;21.89;70.92;99067.09;4948341;29;20050;-94
2023/06/21 06:01:06;;;;;;;17.08;11.40;;;;;;;22.41;68.78;99102.38;4949649;29;20116;-94
2023/06/21 06:03:33;;;;;;;19.17;11.65;;;;;;;22.35;69.16;99087.41;4938259;29;20051;-95
2023/06/21 06:05:59;;;;;;;17.60;11.88;;;;;;;21.52;73.20;99104.78;4941436;29;20569;-94
2023/06/21 06:08:26;;;;;;;22.85;14.45;;;;;;;21.83;71.62;99077.47;4959145;28;20067;-95
2023/06/21 06:10:52;;;;;;;26.38;16.70;;;;;;;22.24;70.20;99100.84;4959706;29;20050;-93
2023/06/21 06:13:17;;;;;;;31.60;19.80;;;;;;;21.89;71.48;99101.44;4958511;29;20094;-94
2023/06/21 06:15:43;;;;;;;28.52;17.95;;;;;;;21.98;70.77;99086.38;4957804;29;20536;-95
2023/06/21 06:18:09;;;;;;;21.30;13.57;;;;;;;21.95;69.17;99076.63;4943492;29;20118;-93
2023/06/21 06:20:37;;;;;;;20.85;12.98;;;;;;;22.29;68.83;99085.13;4956032;29;20055;-94
2023/06/21 06:23:02;;;;;;;26.70;16.65;;;;;;;22.81;66.98;99070.56;4959721;28;20133;-95
2023/06/21 06:25:28;;;;;;;36.28;20.48;;;;;;;23.37;63.81;99094.53;4962740;29;20468;-94
2023/06/21 06:27:54;;;;;;;29.02;18.98;;;;;;;23.57;62.50;99085.78;4961647;28;20055;-94
2023/06/21 06:30:20;;;;;;;21.75;13.07;;;;;;;23.49;61.31;99099.06;4962767;29;20047;-94
2023/06/21 06:32:46;;;;;;;31.95;17.17;;;;;;;23.70;60.17;99104.72;4961931;29;20043;-95
2023/06/21 06:35:12;;;;;;;22.88;15.25;;;;;;;23.66;60.92;99069.75;4961618;29;20082;-94
2023/06/21 06:37:39;;;;;;;42.22;22.25;;;;;;;23.82;60.47;99072.19;4962634;29;20054;-94
2023/06/21 06:40:06;;;;;;;20.48;12.55;;;;;;;23.66;61.41;99094.19;4961321;29;20050;-93
2023/06/21 06:42:32;;;;;;;19.35;12.65;;;;;;;23.43;62.62;99096.78;4961381;29;20049;-93
2023/06/21 06:44:58;;;;;;;15.50;9.73;;;;;;;23.16;63.61;99105.13;4947237;29;20143;-94
2023/06/21 06:47:23;;;;;;;14.85;9.07;;;;;;;23.45;60.14;99069.53;4941187;29;20070;-92
2023/06/21 06:49:49;;;;;;;11.80;8.95;;;;;;;23.50;61.40;99092.63;4941781;29;20064;-94
2023/06/21 06:52:15;;;;;;;16.63;9.13;;;;;;;23.39;60.53;99098.00;4941525;29;20040;-94
2023/06/21 06:54:42;;;;;;;17.27;10.00;;;;;;;23.59;59.95;99077.50;4952561;29;20134;-94
2023/06/21 06:57:08;;;;;;;16.15;9.75;;;;;;;23.93;59.56;99080.38;4960779;28;20046;-94
2023/06/21 06:59:34;;;;;;;15.45;9.60;;;;;;;24.15;59.40;99080.44;4945995;29;20048;-93
2023/06/21 07:02:00;;;;;;;15.85;9.15;;;;;;;24.55;59.60;99100.94;4939886;29;20394;-92
2023/06/21 07:04:28;;;;;;;14.48;9.02;;;;;;;24.72;58.14;99094.13;4940424;29;20094;-94
2023/06/21 07:06:54;;;;;;;14.95;9.52;;;;;;;24.85;57.41;99085.84;4945267;29;20472;-94
2023/06/21 07:09:20;;;;;;;22.83;12.02;;;;;;;24.97;57.73;99071.25;4943062;29;20058;-94
2023/06/21 07:11:47;;;;;;;21.02;9.70;;;;;;;25.25;57.59;99080.75;4951315;29;20097;-94
2023/06/21 07:14:13;;;;;;;17.88;11.43;;;;;;;25.34;57.47;99080.00;4959021;29;20047;-94
2023/06/21 07:16:42;;;;;;;25.23;11.15;;;;;;;25.57;56.14;99075.34;4959589;29;20050;-95
2023/06/21 07:19:07;;;;;;;;;;;;;;;25.72;56.09;99085.91;4960063;28;20098;-94
2023/06/21 07:21:33;;;;;;;14.40;9.45;;;;;;;25.35;57.33;99092.63;4959515;28;19922;-94
2023/06/21 07:23:59;;;;;;;18.13;10.32;;;;;;;24.62;59.03;99069.53;4942337;29;20043;-94
2023/06/21 07:26:25;;;;;;;18.92;10.30;;;;;;;24.30;61.51;99080.22;4941651;29;20047;-92
2023/06/21 07:28:53;;;;;;;18.48;10.23;;;;;;;24.59;60.30;99086.09;4945094;29;20382;-92
2023/06/21 07:31:18;;;;;;;14.02;9.50;;;;;;;24.28;59.23;99072.19;4942786;29;20118;-93
2023/06/21 07:33:45;;;;;;;16.95;9.82;;;;;;;24.73;56.53;99085.00;4952588;29;20067;-92
2023/06/21 07:36:11;;;;;;;72.28;38.42;;;;;;;25.39;56.98;99090.50;4939967;29;20044;-90
2023/06/21 07:38:37;;;;;;;42.80;27.38;;;;;;;25.79;54.48;99062.63;4939714;29;20493;-94
2023/06/21 07:41:03;;;;;;;22.15;14.13;;;;;;;26.18;53.32;99052.03;4948990;29;20524;-93
2023/06/21 07:43:28;;;;;;;16.33;9.82;;;;;;;26.46;51.49;99053.22;4957071;28;20402;-93
2023/06/21 07:45:56;;;;;;;17.63;10.45;;;;;;;26.15;52.49;99071.38;4949933;29;20048;-93
2023/06/21 07:48:22;;;;;;;16.95;9.95;;;;;;;26.49;52.45;99076.63;4946054;29;20221;-94
2023/06/21 07:50:47;;;;;;;17.02;10.05;;;;;;;26.59;51.70;99066.66;4939352;29;20569;-93
2023/06/21 07:53:13;;;;;;;18.25;10.35;;;;;;;26.72;51.71;99059.09;4940255;29;20142;-94
2023/06/21 07:55:39;;;;;;;16.40;9.73;;;;;;;26.59;50.52;99070.25;4940079;29;20054;-93
2023/06/21 07:58:06;;;;;;;14.48;9.52;;;;;;;26.72;50.30;99058.22;4957424;29;20138;-94
2023/06/21 08:00:32;;;;;;;16.05;9.88;;;;;;;26.00;53.25;99036.31;4958929;28;20533;-93
2023/06/21 08:03:01;;;;;;;15.90;9.85;;;;;;;26.07;50.21;99035.75;4944240;28;20035;-93
2023/06/21 08:05:27;;;;;;;16.48;10.50;;;;;;;26.55;50.48;99048.81;4941162;29;20094;-92
2023/06/21 08:07:53;;;;;;;19.90;10.63;;;;;;;26.58;50.50;99038.50;4962493;28;20039;-91
2023/06/21 08:10:19;;;;;;;19.77;11.00;;;;;;;26.01;51.59;99061.69;4951680;29;20043;-94
2023/06/21 08:12:45;;;;;;;19.52;10.65;;;;;;;26.23;52.74;99050.63;4942641;29;20397;-94
2023/06/21 08:15:11;;;;;;;18.63;11.38;;;;;;;26.57;51.57;99057.75;4945252;29;20502;-91
2023/06/21 08:17:37;;;;;;;19.08;11.10;;;;;;;27.03;51.05;99046.28;4949008;29;20047;-94
2023/06/21 08:20:06;;;;;;;20.58;11.70;;;;;;;26.81;51.68;99054.69;4941287;29;20056;-94
2023/06/21 08:22:32;;;;;;;19.08;11.65;;;;;;;26.86;51.60;99071.50;4947732;29;20569;-93
2023/06/21 08:24:58;;;;;;;20.40;12.43;;;;;;;26.20;53.87;99070.00;4947923;28;20047;-94
2023/06/21 08:27:24;;;;;;;20.38;12.20;;;;;;;26.67;51.33;99058.63;4945646;29;20057;-90
2023/06/21 08:29:49;;;;;;;21.55;12.50;;;;;;;26.48;52.11;99063.97;4961868;28;20458;-93
2023/06/21 08:32:16;;;;;;;20.85;11.85;;;;;;;26.76;51.97;99066.03;4941678;29;20035;-94
2023/06/21 08:34:42;;;;;;;21.50;11.50;;;;;;;27.12;50.57;99052.75;4946666;29;20040;-94
2023/06/21 08:37:09;;;;;;;22.88;12.27;;;;;;;27.28;49.67;99054.13;4948017;29;20106;-92
2023/06/21 08:39:35;;;;;;;24.42;12.45;;;;;;;27.59;50.18;99058.47;4945224;29;20053;-93
2023/06/21 08:42:01;;;;;;;27.52;13.10;;;;;;;28.01;48.29;99039.06;4944441;29;20043;-94
2023/06/21 08:44:27;;;;;;;22.17;12.48;;;;;;;28.57;47.08;99047.47;4942462;29;20050;-92
2023/06/21 08:46:55;;;;;;;21.00;12.23;;;;;;;28.62;45.32;99054.19;4943433;28;20506;-93
2023/06/21 08:49:24;;;;;;;;;;;;;;;28.88;46.36;99061.72;4953854;29;20082;-92
2023/06/21 08:51:50;;;;;;;;;;;;;;;29.08;44.30;99054.25;4954474;29;19923;-93
2023/06/21 08:54:23;;;;;;;21.83;12.65;;;;;;;29.23;44.03;99046.44;4951759;29;19922;-93
2023/06/21 08:57:03;;;;;;;21.50;11.95;;;;;;;29.17;41.98;99047.94;4942100;29;20404;-91
2023/06/21 08:59:36;;;;;;;22.00;12.13;;;;;;;29.36;41.07;99048.81;4950139;29;20126;-94
2023/06/21 09:02:15;;;;;;;21.55;11.73;;;;;;;29.66;40.36;99047.56;4949847;28;20134;-90
2023/06/21 09:04:47;;;;;;;21.90;11.65;;;;;;;29.79;39.02;99047.22;4942341;29;20035;-91
2023/06/21 09:07:13;;;;;;;20.40;12.18;;;;;;;29.68;39.64;99035.41;4947334;29;20130;-90
2023/06/21 09:09:43;;;;;;;22.85;12.25;;;;;;;29.87;39.10;99037.16;4942126;29;20047;-93
2023/06/21 09:12:12;;;;;;;22.65;12.55;;;;;;;29.78;37.23;99040.88;4946764;29;20134;-93
2023/06/21 09:14:39;;;;;;;21.75;12.27;;;;;;;29.94;38.05;99048.38;4943713;28;20054;-92
2023/06/21 09:17:07;;;;;;;27.25;13.23;;;;;;;29.26;38.23;99052.47;4945936;28;20047;-92
2023/06/21 09:19:34;;;;;;;21.83;13.25;;;;;;;29.65;38.48;99057.69;4945933;29;20066;-92
2023/06/21 09:22:00;;;;;;;21.60;13.15;;;;;;;29.62;37.42;99060.72;4945982;29;20048;-93
2023/06/21 09:24:26;;;;;;;24.98;12.73;;;;;;;29.51;38.12;99030.81;4946851;29;20131;-93
2023/06/21 09:26:53;;;;;;;27.08;13.88;;;;;;;29.74;38.62;99050.44;4945949;28;20129;-94
2023/06/21 09:29:20;;;;;;;24.13;14.20;;;;;;;29.88;39.43;99033.44;4941476;29;20049;-91
2023/06/21 09:31:45;;;;;;;23.75;13.55;;;;;;;30.08;39.90;99061.53;4941233;28;20043;-93
2023/06/21 09:34:11;;;;;;;22.65;12.20;;;;;;;29.94;39.47;99055.72;4946197;29;20035;-92
2023/06/21 09:36:40;;;;;;;21.38;12.50;;;;;;;29.85;38.57;99057.53;4944366;29;20114;-93
2023/06/21 09:39:07;;;;;;;26.35;12.50;;;;;;;29.98;37.92;99047.03;4940649;29;20702;-91
2023/06/21 09:41:33;;;;;;;22.70;12.93;;;;;;;29.96;38.66;99051.81;4941103;29;20638;-93
2023/06/21 09:44:00;;;;;;;20.77;12.57;;;;;;;30.09;39.03;99046.78;4942046;29;20039;-93
2023/06/21 09:46:26;;;;;;;23.20;12.57;;;;;;;30.29;39.42;99046.59;4940743;29;20054;-92
2023/06/21 09:48:52;;;;;;;24.10;12.68;;;;;;;30.63;37.65;99041.16;4952176;29;20277;-91
2023/06/21 09:51:23;;;;;;;23.52;13.60;;;;;;;30.65;37.14;99043.75;4944925;29;20043;-92
2023/06/21 09:53:50;;;;;;;21.95;12.30;;;;;;;30.89;37.88;99027.41;4944867;29;20051;-94
2023/06/21 09:56:18;;;;;;;21.90;12.27;;;;;;;31.03;37.22;99033.28;4948923;29;20043;-92
2023/06/21 09:58:44;;;;;;;21.50;11.30;;;;;;;31.27;37.42;99044.38;4949883;29;20055;-90
2023/06/21 10:01:15;;;;;;;36.78;12.20;;;;;;;31.32;35.91;99033.75;4943311;29;20091;-93
2023/06/21 10:03:43;;;;;;;21.42;11.35;;;;;;;31.45;36.20;99027.78;4941982;28;20122;-95
2023/06/21 10:06:14;;;;;;;20.10;11.85;;;;;;;31.73;36.06;99042.09;4943583;29;20039;-94
2023/06/21 10:08:40;;;;;;;22.83;11.50;;;;;;;31.77;35.51;99012.34;4944946;28;20054;-93
2023/06/21 10:11:06;;;;;;;19.42;11.15;;;;;;;31.99;34.76;99030.09;4941944;28;20453;-94
2023/06/21 10:13:33;;;;;;;17.55;10.43;;;;;;;31.97;33.60;99029.38;4945219;28;20091;-94
2023/06/21 10:16:00;;;;;;;19.65;10.30;;;;;;;31.63;31.03;99035.88;4940752;29;20044;-93
2023/06/21 10:18:28;;;;;;;17.05;9.77;;;;;;;31.52;31.83;99020.56;4950092;29;20040;-93
2023/06/21 10:20:57;;;;;;;16.20;9.63;;;;;;;31.05;32.65;99028.50;4940662;28;20062;-91
2023/06/21 10:23:27;;;;;;;18.52;9.75;;;;;;;31.42;32.15;99033.59;4938704;29;20498;-93
2023/06/21 10:25:55;;;;;;;17.75;9.68;;;;;;;31.30;31.80;99029.44;4945537;29;20058;-91
2023/06/21 10:28:22;;;;;;;;;;;;;;;31.16;33.35;99041.91;4951174;28;20099;-93
2023/06/21 10:30:54;;;;;;;17.65;10.15;;;;;;;31.14;32.13;99037.63;4939904;29;19923;-94
2023/06/21 10:33:20;;;;;;;16.95;10.40;;;;;;;31.20;32.27;99039.72;4940724;29;20094;-92
2023/06/21 10:35:48;;;;;;;19.33;9.95;;;;;;;31.37;32.26;99027.72;4941370;29;20047;-93
2023/06/21 10:38:25;;;;;;;17.33;9.40;;;;;;;31.49;30.97;99028.31;4939246;28;20075;-90
2023/06/21 10:40:53;;;;;;;20.15;9.40;;;;;;;31.71;31.56;99019.41;4941338;29;20152;-90
2023/06/21 10:43:20;;;;;;;16.80;9.25;;;;;;;31.93;32.05;99044.50;4940151;28;20383;-93
2023/06/21 10:45:49;;;;;;;17.00;9.63;;;;;;;32.18;32.07;99028.00;4943382;29;20043;-92
2023/06/21 10:48:15;;;;;;;16.38;8.70;;;;;;;32.09;31.60;99017.00;4945830;29;20266;-93
2023/06/21 10:50:42;;;;;;;14.18;8.40;;;;;;;31.92;27.81;99031.75;4944089;29;20111;-93
2023/06/21 10:53:11;;;;;;;13.77;8.73;;;;;;;32.00;30.19;99022.69;4945893;29;20121;-94
2023/06/21 10:55:39;;;;;;;17.98;9.02;;;;;;;32.35;29.09;99024.19;4942873;29;20150;-94
2023/06/21 10:58:06;;;;;;;13.48;8.52;;;;;;;31.92;28.62;99004.25;4940208;28;20071;-91
2023/06/21 11:00:32;;;;;;;13.68;8.55;;;;;;;32.09;28.97;99019.75;4943020;29;20043;-93
2023/06/21 11:02:58;;;;;;;14.90;8.63;;;;;;;32.40;30.68;99018.16;4949671;28;20042;-94
2023/06/21 11:05:25;;;;;;;15.98;8.02;;;;;;;32.48;28.69;99001.63;4941581;29;20506;-94
2023/06/21 11:07:54;;;;;;;20.10;8.45;;;;;;;32.74;29.19;99002.25;4942543;29;20055;-94
2023/06/21 11:10:29;;;;;;;11.95;8.15;;;;;;;32.94;28.72;99010.06;4949117;28;20103;-94
2023/06/21 11:12:56;;;;;;;13.45;8.50;;;;;;;32.84;29.12;99003.94;4946688;29;20702;-94
2023/06/21 11:15:24;;;;;;;11.60;7.55;;;;;;;32.95;29.98;98993.38;4943745;29;20230;-94
2023/06/21 11:18:02;;;;;;;15.52;8.55;;;;;;;33.04;29.33;99009.88;4963696;28;20520;-94